createdAt,value
2023-04-17T00:00:12.853Z,0.00
2023-04-17T00:01:12.832Z,0.00
2023-04-17T00:02:12.850Z,0.00
2023-04-17T00:03:12.942Z,0.00
2023-04-17T00:04:13.077Z,0.00
2023-04-17T00:05:12.752Z,0.00
2023-04-17T00:06:12.706Z,0.00
2023-04-17T00:07:12.689Z,0.00
2023-04-17T00:08:12.664Z,0.00
2023-04-17T00:09:12.986Z,0.00
2023-04-17T00:10:12.614Z,0.00
2023-04-17T00:11:12.601Z,0.00
2023-04-17T00:12:12.593Z,0.00
2023-04-17T00:13:12.563Z,0.00
2023-04-17T00:14:12.525Z,0.00
2023-04-17T00:15:12.490Z,0.00
2023-04-17T00:16:12.522Z,0.00
2023-04-17T00:17:12.444Z,0.00
2023-04-17T00:18:12.465Z,0.00
2023-04-17T00:19:12.486Z,0.00
2023-04-17T00:20:12.375Z,0.00
2023-04-17T00:21:12.344Z,0.00
2023-04-17T00:22:12.321Z,0.00
2023-04-17T00:23:12.360Z,0.00
2023-04-17T00:24:12.272Z,0.00
2023-04-17T00:25:12.326Z,0.00
2023-04-17T00:26:12.230Z,0.00
2023-04-17T00:27:12.197Z,0.00
2023-04-17T00:28:12.173Z,0.00
2023-04-17T00:29:12.504Z,0.00
2023-04-17T00:30:12.130Z,0.00
2023-04-17T00:31:12.115Z,0.00
2023-04-17T00:32:12.155Z,0.00
2023-04-17T00:33:12.078Z,0.00
2023-04-17T00:34:12.034Z,0.00
2023-04-17T00:35:12.012Z,0.00
2023-04-17T00:36:11.977Z,0.00
2023-04-17T00:37:11.970Z,0.00
2023-04-17T00:38:11.950Z,0.00
2023-04-17T00:39:12.192Z,0.00
2023-04-17T00:40:11.892Z,0.00
2023-04-17T00:41:11.866Z,0.00
2023-04-17T00:42:11.841Z,0.00
2023-04-17T00:43:11.821Z,0.00
2023-04-17T00:44:11.793Z,0.00
2023-04-17T00:45:11.796Z,0.00
2023-04-17T00:46:11.745Z,0.00
2023-04-17T00:47:11.717Z,0.00
2023-04-17T00:48:11.704Z,0.00
2023-04-17T00:49:11.903Z,0.00
2023-04-17T00:50:11.643Z,0.00
2023-04-17T00:51:11.629Z,0.00
2023-04-17T00:52:11.609Z,0.00
2023-04-17T00:53:11.573Z,0.00
2023-04-17T00:54:11.544Z,0.00
2023-04-17T00:55:11.524Z,0.00
2023-04-17T00:56:11.498Z,0.00
2023-04-17T00:57:11.480Z,0.00
2023-04-17T00:58:11.468Z,0.00
2023-04-17T00:59:11.749Z,0.00
2023-04-17T01:00:11.409Z,0.00
2023-04-17T01:01:11.502Z,0.00
2023-04-17T01:02:11.445Z,0.00
2023-04-17T01:03:11.534Z,0.00
2023-04-17T01:04:11.534Z,0.00
2023-04-17T01:05:11.281Z,0.00
2023-04-17T01:06:11.256Z,0.00
2023-04-17T01:07:11.237Z,0.00
2023-04-17T01:08:11.229Z,0.00
2023-04-17T01:09:11.456Z,0.00
2023-04-17T01:10:11.161Z,0.00
2023-04-17T01:11:11.151Z,0.00
2023-04-17T01:12:11.105Z,0.00
2023-04-17T01:13:11.086Z,0.00
2023-04-17T01:14:11.061Z,0.00
2023-04-17T01:15:11.053Z,0.00
2023-04-17T01:16:11.015Z,0.00
2023-04-17T01:17:11.027Z,0.00
2023-04-17T01:18:11.019Z,0.00
2023-04-17T01:19:11.172Z,0.00
2023-04-17T01:20:11.078Z,0.00
2023-04-17T01:21:10.894Z,0.00
2023-04-17T01:22:10.867Z,0.00
2023-04-17T01:23:10.851Z,0.00
2023-04-17T01:24:10.822Z,0.00
2023-04-17T01:25:10.795Z,0.00
2023-04-17T01:26:10.770Z,0.00
2023-04-17T01:27:10.750Z,0.00
2023-04-17T01:28:10.722Z,0.00
2023-04-17T01:29:11.047Z,0.00
2023-04-17T01:30:10.693Z,0.00
2023-04-17T01:31:10.694Z,0.00
2023-04-17T01:32:10.624Z,0.00
2023-04-17T01:33:10.624Z,0.00
2023-04-17T01:34:10.581Z,0.00
2023-04-17T01:35:10.575Z,0.00
2023-04-17T01:36:10.529Z,0.00
2023-04-17T01:37:10.525Z,0.00
2023-04-17T01:38:10.480Z,0.00
2023-04-17T01:39:10.775Z,0.00
2023-04-17T01:40:10.449Z,0.00
2023-04-17T01:41:10.411Z,0.00
2023-04-17T01:42:10.390Z,0.00
2023-04-17T01:43:10.358Z,0.00
2023-04-17T01:44:10.332Z,0.00
2023-04-17T01:45:10.315Z,0.00
2023-04-17T01:46:10.350Z,0.00
2023-04-17T01:47:10.265Z,0.00
2023-04-17T01:48:10.228Z,0.00
2023-04-17T01:49:10.525Z,0.00
2023-04-17T01:50:10.191Z,0.00
2023-04-17T01:51:10.168Z,0.00
2023-04-17T01:52:10.139Z,0.00
2023-04-17T01:53:10.111Z,0.00
2023-04-17T01:54:10.092Z,0.00
2023-04-17T01:55:10.067Z,0.00
2023-04-17T01:56:10.037Z,0.00
2023-04-17T01:57:10.025Z,0.00
2023-04-17T01:58:10.001Z,0.00
2023-04-17T01:59:10.164Z,0.00
2023-04-17T02:00:09.941Z,0.00
2023-04-17T02:01:09.922Z,0.00
2023-04-17T02:02:10.027Z,0.00
2023-04-17T02:03:10.015Z,0.00
2023-04-17T02:04:09.958Z,0.00
2023-04-17T02:05:09.845Z,0.00
2023-04-17T02:06:09.797Z,0.00
2023-04-17T02:07:09.792Z,0.00
2023-04-17T02:08:09.745Z,0.00
2023-04-17T02:09:10.026Z,0.00
2023-04-17T02:10:09.705Z,0.00
2023-04-17T02:11:09.672Z,0.00
2023-04-17T02:12:09.651Z,0.00
2023-04-17T02:13:09.623Z,0.00
2023-04-17T02:14:09.600Z,0.00
2023-04-17T02:15:09.571Z,0.00
2023-04-17T02:16:09.628Z,0.00
2023-04-17T02:17:09.528Z,0.00
2023-04-17T02:18:09.615Z,0.00
2023-04-17T02:19:09.633Z,0.00
2023-04-17T02:20:09.452Z,0.00
2023-04-17T02:21:09.443Z,0.00
2023-04-17T02:22:09.405Z,0.00
2023-04-17T02:23:09.375Z,0.00
2023-04-17T02:24:09.354Z,0.00
2023-04-17T02:25:09.329Z,0.00
2023-04-17T02:26:09.305Z,0.00
2023-04-17T02:27:09.289Z,0.00
2023-04-17T02:28:09.272Z,0.00
2023-04-17T02:29:09.478Z,0.00
2023-04-17T02:30:09.205Z,0.00
2023-04-17T02:31:09.247Z,0.00
2023-04-17T02:32:09.159Z,0.00
2023-04-17T02:33:09.191Z,0.00
2023-04-17T02:34:09.103Z,0.00
2023-04-17T02:35:09.084Z,0.00
2023-04-17T02:36:09.063Z,0.00
2023-04-17T02:37:09.064Z,0.00
2023-04-17T02:38:09.021Z,0.00
2023-04-17T02:39:09.074Z,0.00
2023-04-17T02:40:08.960Z,0.00
2023-04-17T02:41:08.934Z,0.00
2023-04-17T02:42:08.922Z,0.00
2023-04-17T02:43:08.893Z,0.00
2023-04-17T02:44:08.865Z,0.00
2023-04-17T02:45:08.837Z,0.00
2023-04-17T02:46:08.832Z,0.00
2023-04-17T02:47:08.787Z,0.00
2023-04-17T02:48:08.769Z,0.00
2023-04-17T02:49:08.747Z,0.00
2023-04-17T02:50:08.721Z,0.00
2023-04-17T02:51:08.688Z,0.00
2023-04-17T02:52:08.665Z,0.00
2023-04-17T02:53:08.668Z,0.00
2023-04-17T02:54:08.630Z,0.00
2023-04-17T02:55:08.589Z,0.00
2023-04-17T02:56:08.582Z,0.00
2023-04-17T02:57:08.543Z,0.00
2023-04-17T02:58:08.521Z,0.00
2023-04-17T02:59:08.626Z,0.00
2023-04-17T03:00:08.503Z,0.00
2023-04-17T03:01:08.505Z,0.00
2023-04-17T03:02:08.546Z,0.00
2023-04-17T03:03:08.541Z,0.00
2023-04-17T03:04:08.421Z,0.00
2023-04-17T03:05:08.360Z,0.00
2023-04-17T03:06:08.328Z,0.00
2023-04-17T03:07:08.293Z,0.00
2023-04-17T03:08:08.285Z,0.00
2023-04-17T03:09:08.263Z,0.00
2023-04-17T03:10:08.224Z,0.00
2023-04-17T03:11:08.191Z,0.00
2023-04-17T03:12:08.191Z,0.00
2023-04-17T03:13:08.141Z,0.00
2023-04-17T03:14:08.123Z,0.00
2023-04-17T03:15:08.867Z,0.00
2023-04-17T03:16:08.164Z,0.00
2023-04-17T03:17:08.052Z,0.00
2023-04-17T03:18:08.117Z,0.00
2023-04-17T03:19:08.015Z,0.00
2023-04-17T03:20:07.983Z,0.00
2023-04-17T03:21:07.943Z,0.00
2023-04-17T03:22:07.926Z,0.00
2023-04-17T03:23:07.898Z,0.00
2023-04-17T03:24:07.874Z,4.00
2023-04-17T03:25:07.865Z,4.00
2023-04-17T03:26:07.836Z,4.00
2023-04-17T03:27:07.799Z,4.00
2023-04-17T03:28:07.772Z,4.00
2023-04-17T03:29:07.747Z,4.00
2023-04-17T03:30:07.765Z,4.00
2023-04-17T03:31:07.698Z,0.00
2023-04-17T03:32:07.907Z,0.00
2023-04-17T03:33:07.651Z,0.00
2023-04-17T03:34:07.662Z,0.00
2023-04-17T03:35:07.607Z,0.00
2023-04-17T03:36:07.571Z,0.00
2023-04-17T03:37:07.556Z,0.00
2023-04-17T03:38:07.532Z,0.00
2023-04-17T03:39:07.513Z,0.00
2023-04-17T03:40:07.524Z,0.00
2023-04-17T03:41:07.557Z,0.00
2023-04-17T03:42:07.430Z,0.00
2023-04-17T03:43:07.403Z,0.00
2023-04-17T03:44:07.378Z,0.00
2023-04-17T03:45:07.359Z,0.00
2023-04-17T03:46:07.424Z,0.00
2023-04-17T03:47:07.306Z,0.00
2023-04-17T03:48:07.395Z,0.00
2023-04-17T03:49:07.276Z,0.00
2023-04-17T03:50:07.237Z,0.00
2023-04-17T03:51:07.211Z,0.00
2023-04-17T03:52:07.190Z,0.00
2023-04-17T03:53:07.150Z,0.00
2023-04-17T03:54:07.140Z,0.00
2023-04-17T03:55:07.108Z,0.00
2023-04-17T03:56:07.074Z,0.00
2023-04-17T03:57:07.078Z,0.00
2023-04-17T03:58:07.050Z,0.00
2023-04-17T03:59:06.998Z,0.00
2023-04-17T04:00:06.985Z,0.00
2023-04-17T04:01:06.953Z,0.00
2023-04-17T04:02:06.998Z,0.00
2023-04-17T04:03:07.073Z,0.00
2023-04-17T04:04:07.048Z,0.00
2023-04-17T04:05:06.892Z,0.00
2023-04-17T04:06:06.831Z,0.00
2023-04-17T04:07:06.804Z,0.00
2023-04-17T04:08:06.817Z,0.00
2023-04-17T04:09:06.749Z,0.00
2023-04-17T04:10:06.733Z,0.00
2023-04-17T04:11:39.926Z,0.00
2023-04-17T04:12:06.673Z,0.00
2023-04-17T04:13:06.673Z,0.00
2023-04-17T04:14:06.628Z,0.00
2023-04-17T04:15:06.609Z,0.00
2023-04-17T04:16:06.608Z,0.00
2023-04-17T04:17:06.547Z,0.00
2023-04-17T04:18:06.609Z,0.00
2023-04-17T04:19:06.511Z,4.00
2023-04-17T04:20:06.485Z,0.00
2023-04-17T04:21:06.483Z,0.00
2023-04-17T04:22:07.054Z,0.00
2023-04-17T04:23:06.402Z,0.00
2023-04-17T04:24:06.370Z,4.00
2023-04-17T04:25:06.352Z,4.00
2023-04-17T04:26:06.328Z,4.00
2023-04-17T04:27:06.318Z,0.00
2023-04-17T04:28:06.277Z,0.00
2023-04-17T04:29:06.270Z,4.00
2023-04-17T04:30:06.225Z,0.00
2023-04-17T04:31:06.224Z,4.00
2023-04-17T04:32:06.179Z,4.00
2023-04-17T04:33:06.297Z,4.00
2023-04-17T04:34:06.160Z,8.00
2023-04-17T04:35:06.105Z,8.00
2023-04-17T04:36:06.078Z,8.00
2023-04-17T04:37:06.060Z,8.00
2023-04-17T04:38:06.030Z,8.00
2023-04-17T04:39:06.007Z,8.00
2023-04-17T04:40:06.008Z,12.00
2023-04-17T04:41:06.458Z,12.00
2023-04-17T04:42:05.982Z,12.00
2023-04-17T04:43:05.907Z,12.00
2023-04-17T04:44:05.882Z,12.00
2023-04-17T04:45:05.873Z,16.00
2023-04-17T04:46:05.839Z,12.00
2023-04-17T04:47:05.885Z,16.00
2023-04-17T04:48:05.801Z,16.00
2023-04-17T04:49:05.762Z,16.00
2023-04-17T04:50:05.745Z,16.00
2023-04-17T04:51:05.715Z,16.00
2023-04-17T04:52:05.678Z,16.00
2023-04-17T04:53:05.660Z,16.00
2023-04-17T04:54:05.629Z,16.00
2023-04-17T04:55:05.609Z,16.00
2023-04-17T04:56:05.588Z,16.00
2023-04-17T04:57:05.560Z,16.00
2023-04-17T04:58:05.524Z,16.00
2023-04-17T04:59:05.506Z,16.00
2023-04-17T05:00:05.483Z,12.00
2023-04-17T05:01:05.562Z,16.00
2023-04-17T05:02:05.547Z,12.00
2023-04-17T05:03:05.660Z,12.00
2023-04-17T05:04:05.677Z,12.00
2023-04-17T05:05:05.440Z,12.00
2023-04-17T05:06:05.330Z,16.00
2023-04-17T05:07:05.311Z,16.00
2023-04-17T05:08:05.286Z,20.00
2023-04-17T05:09:05.260Z,20.00
2023-04-17T05:10:05.231Z,20.00
2023-04-17T05:11:05.218Z,24.00
2023-04-17T05:12:05.200Z,24.00
2023-04-17T05:13:05.160Z,24.00
2023-04-17T05:14:05.140Z,24.00
2023-04-17T05:15:05.116Z,28.00
2023-04-17T05:16:05.134Z,28.00
2023-04-17T05:17:05.126Z,32.00
2023-04-17T05:18:05.079Z,36.00
2023-04-17T05:19:05.021Z,40.00
2023-04-17T05:20:04.981Z,44.00
2023-04-17T05:21:04.967Z,48.00
2023-04-17T05:22:04.940Z,48.00
2023-04-17T05:23:04.926Z,56.00
2023-04-17T05:24:04.888Z,56.00
2023-04-17T05:25:04.864Z,60.00
2023-04-17T05:26:04.836Z,64.00
2023-04-17T05:27:04.819Z,68.00
2023-04-17T05:28:04.784Z,72.00
2023-04-17T05:29:04.761Z,76.00
2023-04-17T05:30:04.760Z,80.00
2023-04-17T05:31:04.718Z,80.00
2023-04-17T05:32:04.789Z,84.00
2023-04-17T05:33:04.765Z,88.00
2023-04-17T05:34:04.637Z,88.00
2023-04-17T05:35:04.623Z,88.00
2023-04-17T05:36:04.582Z,92.00
2023-04-17T05:37:04.564Z,92.00
2023-04-17T05:38:04.530Z,96.00
2023-04-17T05:39:04.516Z,100.00
2023-04-17T05:40:04.482Z,96.00
2023-04-17T05:41:04.465Z,100.00
2023-04-17T05:42:04.455Z,100.00
2023-04-17T05:43:04.416Z,104.00
2023-04-17T05:44:04.393Z,104.00
2023-04-17T05:45:04.360Z,108.00
2023-04-17T05:46:04.406Z,108.00
2023-04-17T05:47:04.330Z,108.00
2023-04-17T05:48:04.448Z,112.00
2023-04-17T05:49:04.287Z,112.00
2023-04-17T05:50:04.244Z,116.00
2023-04-17T05:51:04.230Z,116.00
2023-04-17T05:52:04.185Z,116.00
2023-04-17T05:53:04.165Z,120.00
2023-04-17T05:54:04.143Z,120.00
2023-04-17T05:55:04.112Z,124.00
2023-04-17T05:56:04.088Z,128.00
2023-04-17T05:57:04.063Z,124.00
2023-04-17T05:58:16.887Z,128.00
2023-04-17T05:59:04.012Z,132.00
2023-04-17T06:00:03.984Z,132.00
2023-04-17T06:01:03.966Z,136.00
2023-04-17T06:02:04.011Z,140.00
2023-04-17T06:03:04.090Z,148.00
2023-04-17T06:04:04.175Z,148.00
2023-04-17T06:05:04.128Z,152.00
2023-04-17T06:06:03.841Z,156.00
2023-04-17T06:07:03.813Z,160.00
2023-04-17T06:08:03.785Z,164.00
2023-04-17T06:09:03.775Z,172.00
2023-04-17T06:10:03.733Z,176.00
2023-04-17T06:11:03.715Z,180.00
2023-04-17T06:12:03.687Z,188.00
2023-04-17T06:13:03.678Z,192.00
2023-04-17T06:14:03.635Z,196.00
2023-04-17T06:15:03.620Z,188.00
2023-04-17T06:16:03.591Z,196.00
2023-04-17T06:17:03.601Z,204.00
2023-04-17T06:18:03.592Z,208.00
2023-04-17T06:19:03.521Z,216.00
2023-04-17T06:20:03.490Z,212.00
2023-04-17T06:21:03.491Z,216.00
2023-04-17T06:22:03.440Z,220.00
2023-04-17T06:23:03.409Z,228.00
2023-04-17T06:24:03.381Z,228.00
2023-04-17T06:25:03.364Z,228.00
2023-04-17T06:26:03.334Z,228.00
2023-04-17T06:27:03.305Z,232.00
2023-04-17T06:28:03.282Z,236.00
2023-04-17T06:29:03.257Z,240.00
2023-04-17T06:30:03.240Z,240.00
2023-04-17T06:31:03.258Z,248.00
2023-04-17T06:32:03.183Z,252.00
2023-04-17T06:33:03.216Z,256.00
2023-04-17T06:34:03.136Z,260.00
2023-04-17T06:35:03.115Z,268.00
2023-04-17T06:36:03.085Z,272.00
2023-04-17T06:37:03.080Z,272.00
2023-04-17T06:38:03.029Z,276.00
2023-04-17T06:39:03.006Z,280.00
2023-04-17T06:40:02.992Z,284.00
2023-04-17T06:41:02.980Z,288.00
2023-04-17T06:42:02.930Z,292.00
2023-04-17T06:43:02.928Z,296.00
2023-04-17T06:44:02.909Z,300.00
2023-04-17T06:45:02.861Z,304.00
2023-04-17T06:46:02.835Z,308.00
2023-04-17T06:47:03.020Z,308.00
2023-04-17T06:48:02.829Z,316.00
2023-04-17T06:49:02.776Z,320.00
2023-04-17T06:50:02.754Z,324.00
2023-04-17T06:51:02.703Z,324.00
2023-04-17T06:52:02.684Z,332.00
2023-04-17T06:53:02.677Z,336.00
2023-04-17T06:54:02.632Z,336.00
2023-04-17T06:55:02.617Z,336.00
2023-04-17T06:56:02.597Z,336.00
2023-04-17T06:57:02.559Z,340.00
2023-04-17T06:58:02.532Z,344.00
2023-04-17T06:59:03.226Z,344.00
2023-04-17T07:00:02.483Z,344.00
2023-04-17T07:01:02.452Z,348.00
2023-04-17T07:02:02.522Z,348.00
2023-04-17T07:03:02.584Z,352.00
2023-04-17T07:04:02.530Z,356.00
2023-04-17T07:05:02.373Z,360.00
2023-04-17T07:06:02.339Z,360.00
2023-04-17T07:07:02.303Z,364.00
2023-04-17T07:08:02.282Z,372.00
2023-04-17T07:09:02.580Z,372.00
2023-04-17T07:10:02.227Z,376.00
2023-04-17T07:11:02.236Z,384.00
2023-04-17T07:12:02.198Z,388.00
2023-04-17T07:13:02.146Z,396.00
2023-04-17T07:14:02.195Z,400.00
2023-04-17T07:15:02.201Z,412.00
2023-04-17T07:16:02.241Z,424.00
2023-04-17T07:17:02.058Z,440.00
2023-04-17T07:18:02.085Z,448.00
2023-04-17T07:19:02.002Z,460.00
2023-04-17T07:20:01.981Z,472.00
2023-04-17T07:21:01.949Z,484.00
2023-04-17T07:22:01.981Z,500.00
2023-04-17T07:23:01.903Z,512.00
2023-04-17T07:24:01.909Z,504.00
2023-04-17T07:25:01.874Z,500.00
2023-04-17T07:26:01.832Z,520.00
2023-04-17T07:27:01.802Z,520.00
2023-04-17T07:28:03.948Z,540.00
2023-04-17T07:29:01.762Z,552.00
2023-04-17T07:30:01.729Z,552.00
2023-04-17T07:31:01.726Z,556.00
2023-04-17T07:32:01.742Z,560.00
2023-04-17T07:33:01.707Z,568.00
2023-04-17T07:34:01.633Z,568.00
2023-04-17T07:35:01.607Z,572.00
2023-04-17T07:36:01.574Z,584.00
2023-04-17T07:37:01.578Z,568.00
2023-04-17T07:38:01.523Z,556.00
2023-04-17T07:39:01.500Z,576.00
2023-04-17T07:40:01.484Z,596.00
2023-04-17T07:41:01.477Z,612.00
2023-04-17T07:42:01.429Z,608.00
2023-04-17T07:43:01.417Z,616.00
2023-04-17T07:44:01.397Z,624.00
2023-04-17T07:45:01.362Z,628.00
2023-04-17T07:46:01.335Z,636.00
2023-04-17T07:47:01.340Z,644.00
2023-04-17T07:48:01.365Z,652.00
2023-04-17T07:49:01.257Z,656.00
2023-04-17T07:50:01.242Z,660.00
2023-04-17T07:51:01.213Z,660.00
2023-04-17T07:52:01.184Z,660.00
2023-04-17T07:53:01.173Z,660.00
2023-04-17T07:54:01.134Z,632.00
2023-04-17T07:55:01.133Z,680.00
2023-04-17T07:56:01.097Z,676.00
2023-04-17T07:57:01.093Z,684.00
2023-04-17T07:58:01.033Z,688.00
2023-04-17T07:59:01.035Z,692.00
2023-04-17T08:00:00.986Z,700.00
2023-04-17T08:01:00.968Z,712.00
2023-04-17T08:02:00.973Z,724.00
2023-04-17T08:03:01.009Z,736.00
2023-04-17T08:04:01.306Z,760.00
2023-04-17T08:05:00.955Z,768.00
2023-04-17T08:06:00.846Z,856.00
2023-04-17T08:07:00.818Z,1096.00
2023-04-17T08:08:00.791Z,1560.00
2023-04-17T08:09:00.762Z,1112.00
2023-04-17T08:10:00.738Z,1148.00
2023-04-17T08:11:00.711Z,1004.00
2023-04-17T08:12:00.692Z,1024.00
2023-04-17T08:13:00.795Z,960.00
2023-04-17T08:14:00.645Z,964.00
2023-04-17T08:15:00.623Z,960.00
2023-04-17T08:16:00.601Z,924.00
2023-04-17T08:17:00.578Z,804.00
2023-04-17T08:18:00.582Z,884.00
2023-04-17T08:19:00.530Z,948.00
2023-04-17T08:20:00.500Z,948.00
2023-04-17T08:21:00.492Z,968.00
2023-04-17T08:22:00.454Z,972.00
2023-04-17T08:23:00.429Z,880.00
2023-04-17T08:24:00.398Z,888.00
2023-04-17T08:25:00.388Z,880.00
2023-04-17T08:26:00.353Z,868.00
2023-04-17T08:27:00.319Z,876.00
2023-04-17T08:28:00.303Z,872.00
2023-04-17T08:29:00.327Z,876.00
2023-04-17T08:30:00.258Z,884.00
2023-04-17T08:31:00.317Z,884.00
2023-04-17T08:32:12.713Z,880.00
2023-04-17T08:33:00.217Z,932.00
2023-04-17T08:34:12.877Z,904.00
2023-04-17T08:35:00.191Z,912.00
2023-04-17T08:36:01.539Z,996.00
2023-04-17T08:37:00.080Z,1020.00
2023-04-17T08:38:00.131Z,1076.00
2023-04-17T08:39:00.042Z,1072.00
2023-04-17T08:40:00.027Z,1044.00
2023-04-17T08:40:59.982Z,1080.00
2023-04-17T08:41:59.968Z,1096.00
2023-04-17T08:42:59.960Z,1128.00
2023-04-17T08:43:59.916Z,1352.00
2023-04-17T08:44:59.927Z,1248.00
2023-04-17T08:45:59.895Z,1220.00
2023-04-17T08:46:59.852Z,1240.00
2023-04-17T08:47:59.867Z,1540.00
2023-04-17T08:48:59.796Z,1184.00
2023-04-17T08:49:59.767Z,1204.00
2023-04-17T08:50:59.747Z,1208.00
2023-04-17T08:51:59.724Z,1184.00
2023-04-17T08:52:59.699Z,1156.00
2023-04-17T08:53:59.682Z,1256.00
2023-04-17T08:54:59.649Z,1188.00
2023-04-17T08:56:01.362Z,1256.00
2023-04-17T08:56:59.618Z,1316.00
2023-04-17T08:57:59.580Z,1340.00
2023-04-17T08:58:59.564Z,1336.00
2023-04-17T08:59:59.542Z,1408.00
2023-04-17T09:00:59.525Z,1636.00
2023-04-17T09:01:59.619Z,1308.00
2023-04-17T09:02:59.616Z,1236.00
2023-04-17T09:03:59.636Z,1360.00
2023-04-17T09:04:59.675Z,1540.00
2023-04-17T09:05:59.386Z,1480.00
2023-04-17T09:06:59.363Z,1452.00
2023-04-17T09:07:59.343Z,1576.00
2023-04-17T09:08:59.331Z,1488.00
2023-04-17T09:09:59.304Z,1492.00
2023-04-17T09:10:59.292Z,1452.00
2023-04-17T09:11:59.252Z,1460.00
2023-04-17T09:12:59.217Z,1424.00
2023-04-17T09:13:59.204Z,1464.00
2023-04-17T09:14:59.174Z,1452.00
2023-04-17T09:15:59.206Z,1384.00
2023-04-17T09:16:59.140Z,1424.00
2023-04-17T09:17:59.185Z,1436.00
2023-04-17T09:18:59.077Z,1428.00
2023-04-17T09:19:59.053Z,1436.00
2023-04-17T09:20:59.032Z,1412.00
2023-04-17T09:21:59.021Z,1380.00
2023-04-17T09:22:58.981Z,1340.00
2023-04-17T09:23:58.959Z,1352.00
2023-04-17T09:24:58.938Z,1344.00
2023-04-17T09:25:58.917Z,1428.00
2023-04-17T09:26:58.887Z,1304.00
2023-04-17T09:27:58.875Z,1344.00
2023-04-17T09:28:58.840Z,1348.00
2023-04-17T09:29:58.824Z,1328.00
2023-04-17T09:30:58.844Z,1352.00
2023-04-17T09:31:58.873Z,1320.00
2023-04-17T09:32:58.790Z,1332.00
2023-04-17T09:33:58.789Z,1368.00
2023-04-17T09:34:58.723Z,1352.00
2023-04-17T09:35:58.680Z,1380.00
2023-04-17T09:36:58.658Z,1592.00
2023-04-17T09:37:58.648Z,1552.00
2023-04-17T09:38:58.608Z,1408.00
2023-04-17T09:39:58.584Z,1368.00
2023-04-17T09:40:58.559Z,1356.00
2023-04-17T09:41:58.881Z,1388.00
2023-04-17T09:42:58.513Z,1364.00
2023-04-17T09:43:58.488Z,1352.00
2023-04-17T09:44:58.467Z,1416.00
2023-04-17T09:45:58.443Z,1364.00
2023-04-17T09:46:58.472Z,1400.00
2023-04-17T09:47:58.456Z,1428.00
2023-04-17T09:48:58.392Z,1500.00
2023-04-17T09:49:58.353Z,1388.00
2023-04-17T09:50:58.320Z,1364.00
2023-04-17T09:51:58.307Z,1388.00
2023-04-17T09:52:58.285Z,1400.00
2023-04-17T09:53:58.262Z,1400.00
2023-04-17T09:54:58.230Z,1424.00
2023-04-17T09:55:58.225Z,1364.00
2023-04-17T09:56:58.178Z,1372.00
2023-04-17T09:57:58.161Z,1560.00
2023-04-17T09:58:58.136Z,1644.00
2023-04-17T09:59:58.110Z,1468.00
2023-04-17T10:00:58.114Z,1364.00
2023-04-17T10:01:58.150Z,1372.00
2023-04-17T10:02:58.188Z,1364.00
2023-04-17T10:03:58.198Z,1400.00
2023-04-17T10:04:58.295Z,1388.00
2023-04-17T10:05:57.979Z,1512.00
2023-04-17T10:06:57.956Z,1356.00
2023-04-17T10:07:57.928Z,1452.00
2023-04-17T10:08:57.904Z,1476.00
2023-04-17T10:09:57.884Z,1476.00
2023-04-17T10:10:57.858Z,2068.00
2023-04-17T10:11:57.865Z,2064.00
2023-04-17T10:12:57.804Z,1992.00
2023-04-17T10:13:57.786Z,2088.00
2023-04-17T10:14:57.775Z,2136.00
2023-04-17T10:15:57.774Z,2164.00
2023-04-17T10:16:57.759Z,2168.00
2023-04-17T10:17:57.774Z,2124.00
2023-04-17T10:18:57.677Z,2140.00
2023-04-17T10:19:57.655Z,2116.00
2023-04-17T10:20:57.635Z,2072.00
2023-04-17T10:21:57.605Z,1860.00
2023-04-17T10:22:57.574Z,1704.00
2023-04-17T10:23:57.561Z,1620.00
2023-04-17T10:24:57.525Z,1544.00
2023-04-17T10:25:57.513Z,1408.00
2023-04-17T10:26:57.479Z,1336.00
2023-04-17T10:27:57.466Z,1212.00
2023-04-17T10:28:57.448Z,1064.00
2023-04-17T10:29:57.434Z,1104.00
2023-04-17T10:30:57.388Z,1188.00
2023-04-17T10:31:57.412Z,1188.00
2023-04-17T10:32:57.430Z,1180.00
2023-04-17T10:33:57.330Z,1200.00
2023-04-17T10:34:57.312Z,1208.00
2023-04-17T10:35:57.294Z,1208.00
2023-04-17T10:36:57.290Z,1304.00
2023-04-17T10:37:57.246Z,1516.00
2023-04-17T10:38:57.215Z,1408.00
2023-04-17T10:39:57.201Z,1460.00
2023-04-17T10:40:58.082Z,1492.00
2023-04-17T10:41:57.146Z,1512.00
2023-04-17T10:42:57.142Z,1796.00
2023-04-17T10:43:57.098Z,1924.00
2023-04-17T10:44:57.077Z,1904.00
2023-04-17T10:45:57.168Z,1952.00
2023-04-17T10:46:57.048Z,1852.00
2023-04-17T10:47:57.015Z,1952.00
2023-04-17T10:48:57.039Z,1916.00
2023-04-17T10:49:57.011Z,1916.00
2023-04-17T10:50:56.945Z,1964.00
2023-04-17T10:51:56.919Z,1928.00
2023-04-17T10:52:56.914Z,1952.00
2023-04-17T10:53:56.866Z,1944.00
2023-04-17T10:54:56.846Z,1956.00
2023-04-17T10:55:56.828Z,1952.00
2023-04-17T10:56:56.813Z,1944.00
2023-04-17T10:57:56.781Z,1964.00
2023-04-17T10:58:56.764Z,1984.00
2023-04-17T10:59:56.734Z,1988.00
2023-04-17T11:00:56.750Z,1928.00
2023-04-17T11:01:56.767Z,1976.00
2023-04-17T11:02:56.741Z,1788.00
2023-04-17T11:03:56.668Z,1832.00
2023-04-17T11:04:56.667Z,1876.00
2023-04-17T11:05:56.598Z,2064.00
2023-04-17T11:06:56.620Z,2072.00
2023-04-17T11:07:56.558Z,2060.00
2023-04-17T11:08:57.373Z,2096.00
2023-04-17T11:09:56.506Z,2156.00
2023-04-17T11:10:56.490Z,2220.00
2023-04-17T11:11:56.462Z,2248.00
2023-04-17T11:12:56.469Z,2144.00
2023-04-17T11:13:56.418Z,1744.00
2023-04-17T11:14:56.394Z,1712.00
2023-04-17T11:15:56.374Z,1580.00
2023-04-17T11:16:56.426Z,1580.00
2023-04-17T11:17:56.470Z,1588.00
2023-04-17T11:18:56.311Z,1452.00
2023-04-17T11:19:56.285Z,1388.00
2023-04-17T11:20:56.268Z,1372.00
2023-04-17T11:21:56.243Z,1508.00
2023-04-17T11:22:56.223Z,1472.00
2023-04-17T11:23:56.195Z,1620.00
2023-04-17T11:24:56.295Z,1468.00
2023-04-17T11:25:56.147Z,1388.00
2023-04-17T11:26:56.134Z,1316.00
2023-04-17T11:27:56.112Z,1488.00
2023-04-17T11:28:56.082Z,1488.00
2023-04-17T11:29:56.065Z,1496.00
2023-04-17T11:30:56.076Z,1460.00
2023-04-17T11:31:56.030Z,1476.00
2023-04-17T11:32:56.092Z,1456.00
2023-04-17T11:33:55.968Z,1340.00
2023-04-17T11:34:55.956Z,1172.00
2023-04-17T11:35:55.928Z,1284.00
2023-04-17T11:36:55.911Z,1420.00
2023-04-17T11:37:55.887Z,1368.00
2023-04-17T11:38:55.875Z,1464.00
2023-04-17T11:39:55.846Z,1724.00
2023-04-17T11:40:55.863Z,1968.00
2023-04-17T11:41:55.857Z,1884.00
2023-04-17T11:42:55.780Z,1728.00
2023-04-17T11:43:55.752Z,1124.00
2023-04-17T11:44:55.747Z,1592.00
2023-04-17T11:45:55.727Z,1624.00
2023-04-17T11:46:55.695Z,1700.00
2023-04-17T11:47:55.718Z,1720.00
2023-04-17T11:48:55.660Z,1608.00
2023-04-17T11:49:55.621Z,1712.00
2023-04-17T11:50:55.607Z,1732.00
2023-04-17T11:51:55.599Z,1980.00
2023-04-17T11:52:55.555Z,1992.00
2023-04-17T11:53:55.547Z,1964.00
2023-04-17T11:54:55.513Z,1880.00
2023-04-17T11:55:55.486Z,1860.00
2023-04-17T11:56:55.484Z,1848.00
2023-04-17T11:57:55.440Z,1688.00
2023-04-17T11:58:55.417Z,1660.00
2023-04-17T11:59:55.394Z,1692.00
2023-04-17T12:00:55.380Z,1708.00
2023-04-17T12:01:55.373Z,1616.00
2023-04-17T12:02:55.421Z,1716.00
2023-04-17T12:03:55.512Z,1564.00
2023-04-17T12:04:55.421Z,1580.00
2023-04-17T12:05:55.402Z,1604.00
2023-04-17T12:06:55.760Z,1580.00
2023-04-17T12:07:55.218Z,1516.00
2023-04-17T12:08:55.200Z,1548.00
2023-04-17T12:09:55.171Z,872.00
2023-04-17T12:10:55.157Z,1060.00
2023-04-17T12:11:55.155Z,1624.00
2023-04-17T12:12:55.136Z,1648.00
2023-04-17T12:13:55.087Z,1784.00
2023-04-17T12:14:55.065Z,1852.00
2023-04-17T12:15:55.066Z,1688.00
2023-04-17T12:16:55.027Z,1884.00
2023-04-17T12:17:55.043Z,1656.00
2023-04-17T12:18:54.984Z,1724.00
2023-04-17T12:19:54.995Z,1752.00
2023-04-17T12:20:54.938Z,1772.00
2023-04-17T12:21:54.910Z,1940.00
2023-04-17T12:22:54.893Z,1932.00
2023-04-17T12:23:54.868Z,1980.00
2023-04-17T12:24:54.848Z,1356.00
2023-04-17T12:25:54.823Z,788.00
2023-04-17T12:26:54.925Z,744.00
2023-04-17T12:27:54.792Z,1280.00
2023-04-17T12:28:54.778Z,1536.00
2023-04-17T12:29:54.732Z,1796.00
2023-04-17T12:30:54.709Z,1892.00
2023-04-17T12:31:54.728Z,1728.00
2023-04-17T12:32:54.682Z,1872.00
2023-04-17T12:33:54.643Z,2032.00
2023-04-17T12:34:54.622Z,1560.00
2023-04-17T12:35:54.618Z,1424.00
2023-04-17T12:36:54.574Z,1740.00
2023-04-17T12:37:54.547Z,1916.00
2023-04-17T12:38:54.537Z,1124.00
2023-04-17T12:39:54.506Z,1484.00